Time;durP1;ratioP1;P1;durP2;ratioP2;P2;SDS_P1;SDS_P2;PMS_P1;PMS_P2;Temp;Humidity;BMP_temperature;BMP_pressure;BME280_temperature;BME280_humidity;BME280_pressure;Samples;Min_cycle;Max_cycle;Signal;HPM_P1;HPM_P2
2022/05/23 00:01:33;;;;;;;9.88;5.65;;;;;;;;;;6249953;28;20220;-81
2022/05/23 00:04:33;;;;;;;11.60;5.75;;;;;;;;;;6252214;28;20033;-81
2022/05/23 00:07:42;;;;;;;10.50;5.32;;;;;;;;;;6254426;28;20048;-81
2022/05/23 00:10:42;;;;;;;13.55;6.30;;;;;;;;;;6256095;28;20030;-81
2022/05/23 00:13:43;;;;;;;13.13;6.30;;;;;;;;;;6249664;28;20084;-81
2022/05/23 00:16:45;;;;;;;14.27;5.93;;;;;;;;;;6248475;28;20845;-81
2022/05/23 00:19:45;;;;;;;14.23;5.70;;;;;;;;;;6247028;28;20052;-81
2022/05/23 00:22:45;;;;;;;11.75;5.80;;;;;;;;;;6246441;28;20025;-81
2022/05/23 00:25:46;;;;;;;10.55;5.63;;;;;;;;;;6249819;28;20029;-81
2022/05/23 00:28:46;;;;;;;11.20;5.30;;;;;;;;;;6241913;28;20389;-82
2022/05/23 00:35:19;;;;;;;10.25;4.43;;;;;;;;;;6247549;28;20018;-82
2022/05/23 00:38:19;;;;;;;10.27;5.15;;;;;;;;;;6238067;28;20034;-81
2022/05/23 00:44:47;;;;;;;8.55;5.03;;;;;;;;;;6251977;28;20116;-81
2022/05/23 00:47:49;;;;;;;7.68;4.30;;;;;;;;;;6249402;28;20039;-81
2022/05/23 00:50:52;;;;;;;8.32;4.72;;;;;;;;;;6249098;28;20013;-81
2022/05/23 00:53:57;;;;;;;14.15;5.80;;;;;;;;;;6249285;28;20038;-81
2022/05/23 00:56:58;;;;;;;12.07;5.93;;;;;;;;;;6238108;28;20034;-81
2022/05/23 00:59:59;;;;;;;12.50;5.70;;;;;;;;;;6250333;28;20032;-81
2022/05/23 01:03:11;;;;;;;8.10;4.57;;;;;;;;;;6250406;28;20773;-81
2022/05/23 01:06:11;;;;;;;8.52;3.88;;;;;;;;;;6251211;28;20021;-80
2022/05/23 01:09:11;;;;;;;11.68;6.13;;;;;;;;;;6241401;28;20146;-81
2022/05/23 01:12:12;;;;;;;8.02;5.22;;;;;;;;;;6235819;28;20033;-81
2022/05/23 01:15:23;;;;;;;9.27;5.30;;;;;;;;;;6240624;28;20055;-81
2022/05/23 01:18:23;;;;;;;9.07;5.55;;;;;;;;;;6253869;28;20041;-81
2022/05/23 01:21:26;;;;;;;10.32;5.38;;;;;;;;;;6248877;28;20037;-81
2022/05/23 01:24:32;;;;;;;8.50;5.60;;;;;;;;;;6252436;28;20060;-81
2022/05/23 01:27:33;;;;;;;11.40;5.80;;;;;;;;;;6240620;28;20367;-82
2022/05/23 01:30:34;;;;;;;9.85;5.88;;;;;;;;;;6237589;28;20050;-81
2022/05/23 01:33:35;;;;;;;11.57;6.27;;;;;;;;;;6238430;28;20120;-81
2022/05/23 01:36:35;;;;;;;9.57;5.65;;;;;;;;;;6236058;28;20252;-81
2022/05/23 01:39:35;;;;;;;14.18;6.47;;;;;;;;;;6245063;28;20017;-81
2022/05/23 01:42:36;;;;;;;10.60;6.10;;;;;;;;;;6239410;28;20024;-81
2022/05/23 01:45:39;;;;;;;9.60;5.05;;;;;;;;;;6238622;28;20013;-81
2022/05/23 01:48:39;;;;;;;12.00;5.75;;;;;;;;;;6236256;28;20079;-80
2022/05/23 01:51:39;;;;;;;11.43;7.20;;;;;;;;;;6237917;28;20095;-80
2022/05/23 01:54:40;;;;;;;14.80;5.77;;;;;;;;;;6236472;28;20113;-81
2022/05/23 01:57:40;;;;;;;12.30;6.30;;;;;;;;;;6241447;28;20351;-81
2022/05/23 02:03:59;;;;;;;13.48;7.45;;;;;;;;;;6249122;28;20037;-81
2022/05/23 02:06:59;;;;;;;14.60;7.13;;;;;;;;;;6247579;28;20044;-81
2022/05/23 02:10:00;;;;;;;12.52;6.85;;;;;;;;;;6249734;28;20026;-81
2022/05/23 02:13:02;;;;;;;15.00;7.67;;;;;;;;;;6241724;28;20017;-80
2022/05/23 02:16:03;;;;;;;15.93;6.32;;;;;;;;;;6249299;28;20264;-80
2022/05/23 02:19:03;;;;;;;10.98;6.40;;;;;;;;;;6247669;28;20064;-80
2022/05/23 02:22:04;;;;;;;14.38;6.57;;;;;;;;;;6237676;28;20030;-80
2022/05/23 02:25:05;;;;;;;10.45;6.03;;;;;;;;;;6249515;28;20021;-81
2022/05/23 02:28:05;;;;;;;11.60;6.43;;;;;;;;;;6248451;28;20024;-81
2022/05/23 02:31:05;;;;;;;11.52;6.20;;;;;;;;;;6247236;28;20385;-80
2022/05/23 02:34:06;;;;;;;12.27;5.90;;;;;;;;;;6248527;28;20392;-80
2022/05/23 02:37:06;;;;;;;13.05;6.30;;;;;;;;;;6247969;28;20026;-80
2022/05/23 02:40:07;;;;;;;12.80;5.88;;;;;;;;;;6248815;28;20029;-80
2022/05/23 02:43:07;;;;;;;11.38;7.65;;;;;;;;;;6241867;28;20064;-80
2022/05/23 02:46:08;;;;;;;15.00;7.65;;;;;;;;;;6238221;28;20040;-81
2022/05/23 02:49:09;;;;;;;21.55;8.25;;;;;;;;;;6249053;28;20022;-81
2022/05/23 02:52:09;;;;;;;19.25;8.73;;;;;;;;;;6244758;28;20037;-81
2022/05/23 02:55:10;;;;;;;15.93;8.57;;;;;;;;;;6248310;28;20046;-81
2022/05/23 02:58:10;;;;;;;21.27;9.38;;;;;;;;;;6246960;28;20268;-81
2022/05/23 03:01:11;;;;;;;15.93;8.70;;;;;;;;;;6247203;28;20048;-80
2022/05/23 03:04:11;;;;;;;16.73;9.32;;;;;;;;;;6248460;28;20032;-80
2022/05/23 03:07:12;;;;;;;14.20;8.50;;;;;;;;;;6247746;28;20032;-80
2022/05/23 03:10:12;;;;;;;16.17;8.25;;;;;;;;;;6249588;28;20253;-80
2022/05/23 03:13:13;;;;;;;17.13;8.00;;;;;;;;;;6246501;28;20033;-80
2022/05/23 03:16:13;;;;;;;13.48;8.25;;;;;;;;;;6247999;28;20021;-80
2022/05/23 03:19:13;;;;;;;12.40;8.15;;;;;;;;;;6246110;28;20080;-80
2022/05/23 03:28:52;;;;;;;13.00;9.18;;;;;;;;;;6247224;28;20489;-81
2022/05/23 03:31:52;;;;;;;16.88;8.70;;;;;;;;;;6247614;28;20031;-80
2022/05/23 03:34:53;;;;;;;17.38;9.27;;;;;;;;;;6246651;28;20524;-80
2022/05/23 03:37:53;;;;;;;15.63;9.38;;;;;;;;;;6246867;28;20026;-79
2022/05/23 03:40:53;;;;;;;16.05;8.93;;;;;;;;;;6246994;28;20083;-80
2022/05/23 03:43:53;;;;;;;16.30;10.07;;;;;;;;;;6246717;28;20081;-80
2022/05/23 03:46:54;;;;;;;19.35;9.25;;;;;;;;;;6244493;28;20031;-80
2022/05/23 03:49:54;;;;;;;17.15;9.38;;;;;;;;;;6227730;28;20036;-80
2022/05/23 03:52:54;;;;;;;15.88;9.80;;;;;;;;;;6255615;28;20120;-80
2022/05/23 03:55:55;;;;;;;23.00;10.95;;;;;;;;;;6244257;28;20449;-80
2022/05/23 03:58:55;;;;;;;17.98;10.73;;;;;;;;;;6244344;28;20037;-80
2022/05/23 04:01:57;;;;;;;17.67;9.55;;;;;;;;;;6243036;28;20029;-80
2022/05/23 04:04:57;;;;;;;16.02;8.77;;;;;;;;;;6242260;28;20055;-80
2022/05/23 04:07:58;;;;;;;16.55;9.43;;;;;;;;;;6246469;28;20047;-81
2022/05/23 04:10:58;;;;;;;18.75;12.50;;;;;;;;;;6247815;28;20029;-82
2022/05/23 04:13:59;;;;;;;19.75;9.70;;;;;;;;;;6248450;28;20022;-80
2022/05/23 04:16:59;;;;;;;12.95;8.45;;;;;;;;;;6247274;28;20025;-80
2022/05/23 04:19:59;;;;;;;17.20;10.32;;;;;;;;;;6252422;28;20108;-81
2022/05/23 04:22:59;;;;;;;18.00;10.23;;;;;;;;;;6250307;28;20026;-81
2022/05/23 04:26:02;;;;;;;17.90;8.98;;;;;;;;;;6251891;28;20021;-81
2022/05/23 04:29:02;;;;;;;16.10;8.98;;;;;;;;;;6250868;28;20465;-81
2022/05/23 04:35:12;;;;;;;15.82;8.75;;;;;;;;;;6251595;28;20024;-81
2022/05/23 04:35:23;;;;;;;13.27;8.75;;;;;;;;;;6252242;28;20029;-82
2022/05/23 04:38:23;;;;;;;14.65;7.82;;;;;;;;;;6267977;28;20454;-82
2022/05/23 04:41:24;;;;;;;16.30;8.40;;;;;;;;;;6256153;28;20484;-81
2022/05/23 04:44:24;;;;;;;15.93;8.35;;;;;;;;;;6253800;28;20033;-81
2022/05/23 04:50:43;;;;;;;10.18;6.18;;;;;;;;;;6253431;28;20261;-81
2022/05/23 04:53:44;;;;;;;9.60;5.97;;;;;;;;;;6250324;28;20123;-81
2022/05/23 04:56:44;;;;;;;11.85;5.63;;;;;;;;;;6252585;28;20034;-81
2022/05/23 04:59:44;;;;;;;9.67;6.53;;;;;;;;;;6250312;28;20037;-82
2022/05/23 05:02:46;;;;;;;8.57;5.70;;;;;;;;;;6245927;28;20292;-82
2022/05/23 05:05:46;;;;;;;7.70;4.93;;;;;;;;;;6245820;28;20044;-81
2022/05/23 05:08:46;;;;;;;9.57;5.30;;;;;;;;;;6250446;28;20062;-82
2022/05/23 05:11:46;;;;;;;10.30;5.70;;;;;;;;;;6257622;28;20021;-82
2022/05/23 05:14:47;;;;;;;9.20;4.88;;;;;;;;;;6246840;28;20018;-82
2022/05/23 05:17:47;;;;;;;10.25;5.97;;;;;;;;;;6236604;28;20112;-82
2022/05/23 05:20:49;;;;;;;7.57;4.35;;;;;;;;;;6236053;28;20397;-82
2022/05/23 05:23:49;;;;;;;7.40;5.03;;;;;;;;;;6229584;28;20097;-82
2022/05/23 05:26:50;;;;;;;7.13;4.27;;;;;;;;;;6243852;28;20027;-83
2022/05/23 05:29:51;;;;;;;6.63;3.80;;;;;;;;;;6250338;28;20092;-82
2022/05/23 05:32:52;;;;;;;6.07;3.87;;;;;;;;;;6244377;28;20086;-82
2022/05/23 05:35:54;;;;;;;6.75;3.90;;;;;;;;;;6243641;28;20029;-82
2022/05/23 05:38:58;;;;;;;9.27;4.00;;;;;;;;;;6247147;28;20481;-83
2022/05/23 05:42:02;;;;;;;6.20;3.65;;;;;;;;;;6239789;28;20072;-82
2022/05/23 05:45:07;;;;;;;9.40;3.63;;;;;;;;;;6256380;28;20113;-82
2022/05/23 05:48:08;;;;;;;6.47;3.42;;;;;;;;;;6240317;28;20025;-83
2022/05/23 05:51:10;;;;;;;11.67;4.60;;;;;;;;;;6244002;28;20100;-83
2022/05/23 05:54:13;;;;;;;17.15;5.05;;;;;;;;;;6233420;28;20077;-83
2022/05/23 05:57:13;;;;;;;7.13;3.35;;;;;;;;;;6240385;28;20036;-82
2022/05/23 06:00:14;;;;;;;10.90;4.20;;;;;;;;;;6241991;28;20025;-83
2022/05/23 06:03:15;;;;;;;11.63;4.80;;;;;;;;;;6249530;28;20061;-83
2022/05/23 06:12:53;;;;;;;12.30;4.97;;;;;;;;;;6243285;28;20030;-83
2022/05/23 06:15:53;;;;;;;15.50;6.87;;;;;;;;;;6240239;28;20024;-82
2022/05/23 06:18:54;;;;;;;18.20;6.27;;;;;;;;;;6249598;28;20030;-83
2022/05/23 06:21:54;;;;;;;14.00;5.00;;;;;;;;;;6242822;28;20065;-83
2022/05/23 06:24:54;;;;;;;13.17;5.63;;;;;;;;;;6250131;28;20747;-83
2022/05/23 06:27:55;;;;;;;9.10;4.87;;;;;;;;;;6250460;28;20434;-83
2022/05/23 06:30:57;;;;;;;13.47;4.93;;;;;;;;;;6247501;28;20014;-83
2022/05/23 06:33:57;;;;;;;12.35;4.55;;;;;;;;;;6233352;28;20030;-83
2022/05/23 06:36:57;;;;;;;14.67;6.03;;;;;;;;;;6234947;28;20068;-83
2022/05/23 06:39:58;;;;;;;13.97;5.30;;;;;;;;;;6246881;28;20609;-82
2022/05/23 06:42:58;;;;;;;18.20;6.45;;;;;;;;;;6243418;28;20026;-83
2022/05/23 06:46:02;;;;;;;;;;;;;;;;;;6244993;28;20032;-83
2022/05/23 06:49:02;;;;;;;16.40;6.35;;;;;;;;;;6246268;28;20423;-83
2022/05/23 06:52:03;;;;;;;;;;;;;;;;;;6249174;28;20021;-83
2022/05/23 06:55:03;;;;;;;14.30;6.05;;;;;;;;;;6240705;28;19925;-84
2022/05/23 06:58:03;;;;;;;;;;;;;;;;;;6232268;28;20430;-83
2022/05/23 07:01:04;;;;;;;13.23;5.10;;;;;;;;;;6248450;28;19913;-83
2022/05/23 07:04:04;;;;;;;;;;;;;;;;;;6246825;28;20366;-83
2022/05/23 07:13:42;;;;;;;14.80;5.40;;;;;;;;;;6240818;28;20033;-84
2022/05/23 07:16:42;;;;;;;;;;;;;;;;;;6243431;28;20087;-84
2022/05/23 07:19:42;;;;;;;15.20;5.38;;;;;;;;;;6246645;28;19909;-84
2022/05/23 07:22:42;;;;;;;;;;;;;;;;;;6232417;28;20018;-84
2022/05/23 07:25:43;;;;;;;10.23;4.28;;;;;;;;;;6249639;28;19917;-83
2022/05/23 07:28:43;;;;;;;;;;;;;;;;;;6247021;28;20380;-84
2022/05/23 07:31:44;;;;;;;10.80;5.00;;;;;;;;;;6246086;28;20376;-85
2022/05/23 07:34:44;;;;;;;;;;;;;;;;;;6239538;28;20112;-84
2022/05/23 07:37:44;;;;;;;14.95;5.15;;;;;;;;;;6249423;28;19964;-84
2022/05/23 07:40:45;;;;;;;;;;;;;;;;;;6248567;28;20021;-84
2022/05/23 07:43:45;;;;;;;12.68;6.15;;;;;;;;;;6246493;28;19909;-84
2022/05/23 07:46:45;;;;;;;;;;;;;;;;;;6249209;28;20036;-84
2022/05/23 07:49:47;;;;;;;14.43;5.80;;;;;;;;;;6252436;28;19909;-84
2022/05/23 08:02:44;;;;;;;15.05;6.72;;;;;;;;;;6253470;28;20037;-84
2022/05/23 08:05:44;;;;;;;14.50;5.93;;;;;;;;;;6241831;28;20056;-84
2022/05/23 08:08:44;;;;;;;17.20;6.72;;;;;;;;;;6244455;28;20044;-84
2022/05/23 08:11:46;;;;;;;20.33;7.53;;;;;;;;;;6236422;28;20014;-84
2022/05/23 08:14:47;;;;;;;14.45;6.15;;;;;;;;;;6237130;28;20025;-83
2022/05/23 08:17:48;;;;;;;17.73;6.40;;;;;;;;;;6241574;28;20033;-83
2022/05/23 08:20:48;;;;;;;11.15;4.50;;;;;;;;;;6242618;28;20386;-84
2022/05/23 08:23:48;;;;;;;10.18;3.30;;;;;;;;;;6247590;28;20072;-83
2022/05/23 08:26:48;;;;;;;10.07;2.73;;;;;;;;;;6235741;28;20022;-84
2022/05/23 08:29:49;;;;;;;6.13;2.50;;;;;;;;;;6245925;28;20045;-84
2022/05/23 08:32:50;;;;;;;7.73;2.93;;;;;;;;;;6242356;28;20362;-83
2022/05/23 08:35:50;;;;;;;7.32;3.03;;;;;;;;;;6244940;28;20022;-84
2022/05/23 08:38:50;;;;;;;3.70;2.07;;;;;;;;;;6244187;28;20025;-84
2022/05/23 08:41:51;;;;;;;5.80;2.30;;;;;;;;;;6247454;28;20113;-84
2022/05/23 08:44:59;;;;;;;6.37;2.67;;;;;;;;;;6250987;28;20504;-83
2022/05/23 08:48:11;;;;;;;10.98;3.90;;;;;;;;;;6261081;28;20024;-84
2022/05/23 08:51:19;;;;;;;7.10;3.67;;;;;;;;;;6245834;28;20064;-84
2022/05/23 08:54:19;;;;;;;10.80;3.75;;;;;;;;;;6252836;28;20040;-83
2022/05/23 08:57:25;;;;;;;9.53;4.57;;;;;;;;;;6255429;28;20029;-84
2022/05/23 09:00:28;;;;;;;9.23;3.40;;;;;;;;;;6240048;28;20022;-83
2022/05/23 09:03:34;;;;;;;7.88;3.10;;;;;;;;;;6250459;28;20029;-84
2022/05/23 09:06:39;;;;;;;5.43;2.40;;;;;;;;;;6247736;28;20026;-84
2022/05/23 09:09:39;;;;;;;6.47;2.58;;;;;;;;;;6247200;28;20084;-84
2022/05/23 09:12:40;;;;;;;6.07;2.40;;;;;;;;;;6248362;28;20018;-84
2022/05/23 09:15:40;;;;;;;5.10;2.13;;;;;;;;;;6244644;28;20018;-84
2022/05/23 09:18:55;;;;;;;4.37;2.60;;;;;;;;;;6253911;28;20369;-84
2022/05/23 09:22:13;;;;;;;8.18;3.67;;;;;;;;;;6255560;28;20032;-84
2022/05/23 09:25:16;;;;;;;7.85;3.67;;;;;;;;;;6255527;28;20014;-84
2022/05/23 09:28:31;;;;;;;5.60;2.00;;;;;;;;;;6255715;28;20055;-84
2022/05/23 09:31:43;;;;;;;3.58;1.90;;;;;;;;;;6257782;28;20057;-84
2022/05/23 09:34:49;;;;;;;6.03;2.45;;;;;;;;;;6240984;28;20018;-84
2022/05/23 09:38:08;;;;;;;7.43;2.53;;;;;;;;;;6254978;28;20022;-84
2022/05/23 09:41:25;;;;;;;3.55;2.22;;;;;;;;;;6249777;28;20084;-84
2022/05/23 09:47:55;;;;;;;3.92;1.60;;;;;;;;;;6254944;28;20033;-85
2022/05/23 09:51:00;;;;;;;8.52;2.70;;;;;;;;;;6257391;28;20477;-85
2022/05/23 09:54:02;;;;;;;3.55;1.80;;;;;;;;;;6253534;28;20076;-85
2022/05/23 09:57:04;;;;;;;3.55;1.60;;;;;;;;;;6269260;28;20021;-84
2022/05/23 10:00:04;;;;;;;;;;;;;;;;;;6264601;28;20021;-85
2022/05/23 10:03:04;;;;;;;6.13;2.27;;;;;;;;;;6257364;28;19909;-85
2022/05/23 10:06:11;;;;;;;1.37;1.10;;;;;;;;;;6253524;28;20040;-84
2022/05/23 10:09:22;;;;;;;2.85;1.42;;;;;;;;;;6250822;28;20036;-84
2022/05/23 10:12:22;;;;;;;2.70;1.15;;;;;;;;;;6255206;28;20017;-84
2022/05/23 10:15:24;;;;;;;2.10;0.90;;;;;;;;;;6247840;28;20080;-84
2022/05/23 10:18:30;;;;;;;3.17;2.08;;;;;;;;;;6245018;28;20026;-84
2022/05/23 10:21:33;;;;;;;6.40;2.40;;;;;;;;;;6248625;28;20083;-85
2022/05/23 10:24:34;;;;;;;4.38;1.33;;;;;;;;;;6246472;28;20025;-85
2022/05/23 10:27:42;;;;;;;1.58;1.00;;;;;;;;;;6241797;28;20022;-85
2022/05/23 10:30:47;;;;;;;3.38;1.38;;;;;;;;;;6240178;28;20446;-84
2022/05/23 10:33:53;;;;;;;1.50;1.17;;;;;;;;;;6246647;28;20071;-85
2022/05/23 10:36:54;;;;;;;1.83;1.20;;;;;;;;;;6247386;28;20159;-86
2022/05/23 10:43:20;;;;;;;2.53;0.90;;;;;;;;;;6243640;28;20021;-86
2022/05/23 10:46:21;;;;;;;3.47;1.52;;;;;;;;;;6242627;28;20029;-86
2022/05/23 10:49:21;;;;;;;5.07;1.67;;;;;;;;;;6237567;28;20036;-86
2022/05/23 10:52:31;;;;;;;3.97;1.80;;;;;;;;;;6244398;28;20055;-85
2022/05/23 10:55:41;;;;;;;3.72;1.30;;;;;;;;;;6245907;28;20021;-85
2022/05/23 10:58:59;;;;;;;2.42;0.82;;;;;;;;;;6242032;28;20045;-85
2022/05/23 11:02:00;;;;;;;5.28;1.02;;;;;;;;;;6248798;28;20032;-85
2022/05/23 11:05:29;;;;;;;1.63;1.20;;;;;;;;;;6257779;28;20025;-85
2022/05/23 11:08:51;;;;;;;2.83;1.30;;;;;;;;;;6236035;28;20045;-85
2022/05/23 11:12:13;;;;;;;2.17;1.25;;;;;;;;;;6254062;28;20040;-85
2022/05/23 11:15:13;;;;;;;;;;;;;;;;;;6256807;28;20013;-85
2022/05/23 11:18:16;;;;;;;6.32;1.20;;;;;;;;;;6253921;28;19905;-85
2022/05/23 11:21:28;;;;;;;1.23;0.90;;;;;;;;;;6250283;28;20033;-85
2022/05/23 11:24:28;;;;;;;;;;;;;;;;;;6248535;28;20025;-85
2022/05/23 11:34:28;;;;;;;4.90;1.20;;;;;;;;;;6248621;28;20022;-85
2022/05/23 11:40:37;;;;;;;1.85;1.02;;;;;;;;;;6253762;28;20526;-85
2022/05/23 11:43:37;;;;;;;3.78;1.15;;;;;;;;;;6252983;28;20032;-84
2022/05/23 11:46:56;;;;;;;1.80;1.17;;;;;;;;;;6255957;28;20022;-85
2022/05/23 11:50:00;;;;;;;0.88;0.73;;;;;;;;;;6252698;28;20064;-84
2022/05/23 11:53:11;;;;;;;2.35;0.73;;;;;;;;;;6253591;28;20046;-85
2022/05/23 11:56:31;;;;;;;2.45;0.68;;;;;;;;;;6250045;28;20164;-85
2022/05/23 11:59:31;;;;;;;1.15;0.93;;;;;;;;;;6258198;28;20024;-86
2022/05/23 12:02:36;;;;;;;2.27;0.80;;;;;;;;;;6254683;28;20025;-85
2022/05/23 12:05:36;;;;;;;2.47;0.80;;;;;;;;;;6251155;28;20017;-84
2022/05/23 12:08:38;;;;;;;0.73;0.73;;;;;;;;;;6252363;28;20045;-84
2022/05/23 12:11:39;;;;;;;1.23;0.80;;;;;;;;;;6245331;28;20018;-84
2022/05/23 12:14:39;;;;;;;1.60;0.90;;;;;;;;;;6242106;28;20367;-83
2022/05/23 12:17:40;;;;;;;1.50;0.97;;;;;;;;;;6258566;28;20045;-84
2022/05/23 12:20:45;;;;;;;1.20;0.87;;;;;;;;;;6256934;28;20021;-86
2022/05/23 12:23:46;;;;;;;1.10;0.90;;;;;;;;;;6257403;28;20060;-86
2022/05/23 12:26:50;;;;;;;2.30;1.02;;;;;;;;;;6253825;28;20112;-86
2022/05/23 12:30:11;;;;;;;2.28;0.70;;;;;;;;;;6244250;28;20401;-85
2022/05/23 12:33:22;;;;;;;1.98;0.90;;;;;;;;;;6251110;28;20021;-85
2022/05/23 12:36:24;;;;;;;1.60;0.82;;;;;;;;;;6257785;28;20018;-86
2022/05/23 12:39:40;;;;;;;0.73;0.73;;;;;;;;;;6259763;28;20029;-86
2022/05/23 12:42:40;;;;;;;3.40;1.27;;;;;;;;;;6264528;28;20061;-86
2022/05/23 12:46:04;;;;;;;1.70;0.67;;;;;;;;;;6249462;28;20086;-86
2022/05/23 12:49:10;;;;;;;0.98;0.85;;;;;;;;;;6256863;28;20048;-85
2022/05/23 12:52:14;;;;;;;0.57;0.57;;;;;;;;;;6248009;28;20036;-85
2022/05/23 12:55:14;;;;;;;2.05;0.85;;;;;;;;;;6252743;28;20052;-86
2022/05/23 12:58:33;;;;;;;0.67;0.63;;;;;;;;;;6255636;28;20037;-85
2022/05/23 13:01:36;;;;;;;1.30;0.90;;;;;;;;;;6266006;28;20029;-87
2022/05/23 13:04:50;;;;;;;1.45;1.20;;;;;;;;;;6255675;28;20025;-86
2022/05/23 13:08:06;;;;;;;4.50;1.30;;;;;;;;;;6240474;28;20128;-85
2022/05/23 13:11:11;;;;;;;5.28;1.20;;;;;;;;;;6251453;28;20026;-85
2022/05/23 13:14:11;;;;;;;1.70;1.00;;;;;;;;;;6253917;28;20009;-86
2022/05/23 13:17:12;;;;;;;3.00;1.00;;;;;;;;;;6248258;28;20056;-86
2022/05/23 13:23:52;;;;;;;3.05;0.73;;;;;;;;;;6253804;28;20034;-85
2022/05/23 13:26:57;;;;;;;2.67;0.90;;;;;;;;;;6251623;28;20025;-84
2022/05/23 13:29:59;;;;;;;4.70;0.88;;;;;;;;;;6251919;28;20059;-84
2022/05/23 13:33:00;;;;;;;1.27;0.90;;;;;;;;;;6254308;28;20499;-85
2022/05/23 13:36:02;;;;;;;2.00;1.08;;;;;;;;;;6265503;28;20006;-85
2022/05/23 13:39:04;;;;;;;5.80;1.48;;;;;;;;;;6239195;28;20097;-85
2022/05/23 13:42:16;;;;;;;1.83;1.17;;;;;;;;;;6235140;28;20028;-85
2022/05/23 13:45:18;;;;;;;1.60;1.02;;;;;;;;;;6244193;28;20021;-85
2022/05/23 13:48:23;;;;;;;4.60;1.00;;;;;;;;;;6248242;28;20025;-84
2022/05/23 13:51:27;;;;;;;1.20;0.90;;;;;;;;;;6244282;28;20018;-84
2022/05/23 13:54:37;;;;;;;2.50;1.00;;;;;;;;;;6242812;28;20046;-84
2022/05/23 13:57:41;;;;;;;2.10;1.10;;;;;;;;;;6251153;28;20028;-84
2022/05/23 14:00:46;;;;;;;4.32;1.30;;;;;;;;;;6242477;28;20504;-84
2022/05/23 14:04:00;;;;;;;1.40;0.82;;;;;;;;;;6253077;28;20120;-83
2022/05/23 14:07:23;;;;;;;2.05;0.90;;;;;;;;;;6257525;28;20036;-84
2022/05/23 14:10:28;;;;;;;2.75;1.10;;;;;;;;;;6258594;28;20045;-83
2022/05/23 14:13:29;;;;;;;2.35;1.10;;;;;;;;;;6257504;28;20025;-84
2022/05/23 14:16:29;;;;;;;2.47;1.50;;;;;;;;;;6252535;28;20025;-83
2022/05/23 14:19:42;;;;;;;4.17;1.27;;;;;;;;;;6251817;28;20010;-83
2022/05/23 14:22:57;;;;;;;2.40;1.02;;;;;;;;;;6230553;28;20021;-83
2022/05/23 14:26:09;;;;;;;4.35;1.30;;;;;;;;;;6254957;28;20026;-83
2022/05/23 14:29:11;;;;;;;2.03;1.30;;;;;;;;;;6245012;28;20105;-82
2022/05/23 14:32:24;;;;;;;2.75;1.15;;;;;;;;;;6248474;28;20024;-84
2022/05/23 14:35:28;;;;;;;2.78;1.42;;;;;;;;;;6244238;28;20033;-84
2022/05/23 14:38:31;;;;;;;2.42;1.15;;;;;;;;;;6245248;28;20029;-84
2022/05/23 14:41:33;;;;;;;6.50;1.40;;;;;;;;;;6251383;28;20505;-84
2022/05/23 14:44:34;;;;;;;2.03;1.20;;;;;;;;;;6238156;28;20032;-84
2022/05/23 14:47:34;;;;;;;3.07;1.00;;;;;;;;;;6248659;28;20053;-83
2022/05/23 14:50:37;;;;;;;2.03;1.10;;;;;;;;;;6253319;28;20021;-83
2022/05/23 14:57:01;;;;;;;3.65;1.15;;;;;;;;;;6239276;28;20038;-83
2022/05/23 15:03:23;;;;;;;2.35;0.95;;;;;;;;;;6238470;28;20030;-83
2022/05/23 15:06:24;;;;;;;2.80;1.30;;;;;;;;;;6245981;28;20024;-84
2022/05/23 15:09:24;;;;;;;2.70;1.57;;;;;;;;;;6240451;28;20444;-84
2022/05/23 15:12:25;;;;;;;5.27;1.13;;;;;;;;;;6245709;28;20320;-83
2022/05/23 15:15:25;;;;;;;4.53;1.17;;;;;;;;;;6245988;28;20064;-83
2022/05/23 15:18:25;;;;;;;1.83;1.57;;;;;;;;;;6251765;28;20187;-83
2022/05/23 15:21:26;;;;;;;3.70;0.90;;;;;;;;;;6246222;28;20029;-83
2022/05/23 15:24:26;;;;;;;1.90;1.03;;;;;;;;;;6252421;28;20568;-84
2022/05/23 15:27:29;;;;;;;3.33;1.67;;;;;;;;;;6252350;28;20025;-83
2022/05/23 15:30:30;;;;;;;1.92;1.20;;;;;;;;;;6244739;28;20014;-84
2022/05/23 15:33:30;;;;;;;1.30;1.10;;;;;;;;;;6247329;28;20021;-83
2022/05/23 15:36:30;;;;;;;1.90;1.30;;;;;;;;;;6240225;28;20018;-84
2022/05/23 15:39:34;;;;;;;3.70;0.73;;;;;;;;;;6247990;28;20024;-84
2022/05/23 15:42:34;;;;;;;3.38;1.40;;;;;;;;;;6251658;28;20027;-84
2022/05/23 15:45:35;;;;;;;5.57;1.33;;;;;;;;;;6249955;28;20025;-83
2022/05/23 15:48:35;;;;;;;2.67;1.07;;;;;;;;;;6241614;28;20025;-83
2022/05/23 15:51:39;;;;;;;2.17;0.93;;;;;;;;;;6242330;28;20044;-83
2022/05/23 15:54:40;;;;;;;2.10;1.20;;;;;;;;;;6250652;28;20280;-83
2022/05/23 15:57:49;;;;;;;4.07;1.90;;;;;;;;;;6244433;28;20024;-83
2022/05/23 16:00:50;;;;;;;2.58;1.27;;;;;;;;;;6240734;28;20493;-83
2022/05/23 16:03:50;;;;;;;1.67;1.20;;;;;;;;;;6241170;28;20025;-83
2022/05/23 16:06:51;;;;;;;1.13;1.07;;;;;;;;;;6237886;28;20050;-82
2022/05/23 16:09:52;;;;;;;1.53;1.43;;;;;;;;;;6250703;28;20447;-82
2022/05/23 16:12:55;;;;;;;2.30;1.20;;;;;;;;;;6254384;28;20033;-82
2022/05/23 16:15:55;;;;;;;2.65;1.65;;;;;;;;;;6255286;28;20017;-82
2022/05/23 16:18:55;;;;;;;3.60;1.03;;;;;;;;;;6252975;28;20463;-81
2022/05/23 16:22:00;;;;;;;3.93;1.27;;;;;;;;;;6254028;28;20021;-81
2022/05/23 16:25:00;;;;;;;3.45;2.13;;;;;;;;;;6247809;28;20117;-81
2022/05/23 16:28:00;;;;;;;2.40;1.37;;;;;;;;;;6240423;28;20356;-81
2022/05/23 16:31:00;;;;;;;2.47;2.07;;;;;;;;;;6243392;28;20458;-81
2022/05/23 16:37:20;;;;;;;2.25;1.27;;;;;;;;;;6248003;28;20033;-81
2022/05/23 16:40:20;;;;;;;2.90;1.63;;;;;;;;;;6255492;28;20492;-82
2022/05/23 16:43:20;;;;;;;6.33;1.60;;;;;;;;;;6247219;28;20029;-81
2022/05/23 16:46:21;;;;;;;9.93;3.20;;;;;;;;;;6255768;28;20108;-81
2022/05/23 16:49:22;;;;;;;1.70;1.60;;;;;;;;;;6254440;28;20060;-81
2022/05/23 16:52:22;;;;;;;2.80;1.50;;;;;;;;;;6250365;28;20036;-82
2022/05/23 16:55:23;;;;;;;4.17;1.10;;;;;;;;;;6257168;28;20057;-81
2022/05/23 16:58:23;;;;;;;2.63;1.50;;;;;;;;;;6253239;28;20356;-81
2022/05/23 17:01:24;;;;;;;2.17;1.37;;;;;;;;;;6254347;28;20021;-82
2022/05/23 17:04:24;;;;;;;2.67;1.60;;;;;;;;;;6257671;28;20037;-83
2022/05/23 17:07:24;;;;;;;2.87;1.70;;;;;;;;;;6256816;28;20044;-82
2022/05/23 17:10:25;;;;;;;4.03;1.60;;;;;;;;;;6254029;28;20516;-82
2022/05/23 17:13:25;;;;;;;3.17;1.50;;;;;;;;;;6253489;28;20143;-82
2022/05/23 17:16:26;;;;;;;5.90;2.07;;;;;;;;;;6256682;28;20021;-87
2022/05/23 17:19:26;;;;;;;1.83;1.43;;;;;;;;;;6259686;28;20464;-82
2022/05/23 17:22:26;;;;;;;5.23;2.00;;;;;;;;;;6244259;28;20029;-82
2022/05/23 17:25:27;;;;;;;7.33;1.97;;;;;;;;;;6243562;28;20568;-81
2022/05/23 17:28:27;;;;;;;2.43;1.50;;;;;;;;;;6254880;28;20029;-83
2022/05/23 17:31:27;;;;;;;3.80;1.60;;;;;;;;;;6257642;28;20025;-82
2022/05/23 17:34:28;;;;;;;4.77;1.70;;;;;;;;;;6253296;28;20022;-81
2022/05/23 17:37:29;;;;;;;2.65;1.50;;;;;;;;;;6253082;28;20032;-82
2022/05/23 17:40:29;;;;;;;3.40;1.67;;;;;;;;;;6253463;28;20033;-83
2022/05/23 17:43:29;;;;;;;4.87;2.27;;;;;;;;;;6255027;28;20059;-82
2022/05/23 17:46:30;;;;;;;6.67;1.50;;;;;;;;;;6254840;28;20080;-82
2022/05/23 17:49:30;;;;;;;2.33;1.40;;;;;;;;;;6253961;28;20021;-81
2022/05/23 17:52:31;;;;;;;4.20;1.73;;;;;;;;;;6253024;28;20014;-82
2022/05/23 17:55:31;;;;;;;3.90;1.80;;;;;;;;;;6255706;28;20043;-82
2022/05/23 17:58:31;;;;;;;3.30;1.93;;;;;;;;;;6250913;28;20032;-82
2022/05/23 18:01:32;;;;;;;2.63;1.50;;;;;;;;;;6251004;28;20025;-82
2022/05/23 18:04:32;;;;;;;3.30;1.48;;;;;;;;;;6250720;28;20032;-82
2022/05/23 18:07:33;;;;;;;3.70;2.10;;;;;;;;;;6251827;28;20032;-82
2022/05/23 18:10:34;;;;;;;2.40;1.83;;;;;;;;;;6251659;28;20076;-82
2022/05/23 18:20:12;;;;;;;3.13;1.40;;;;;;;;;;6236556;28;20498;-82
2022/05/23 18:23:13;;;;;;;3.50;1.83;;;;;;;;;;6239845;28;20056;-82
2022/05/23 18:26:13;;;;;;;7.07;1.63;;;;;;;;;;6260463;28;20021;-82
2022/05/23 18:29:13;;;;;;;4.22;1.73;;;;;;;;;;6243302;28;20092;-82
2022/05/23 18:32:13;;;;;;;5.83;1.63;;;;;;;;;;6251220;28;20406;-83
2022/05/23 18:35:14;;;;;;;3.73;1.60;;;;;;;;;;6263562;28;20040;-84
2022/05/23 18:38:14;;;;;;;4.13;2.53;;;;;;;;;;6255429;28;20314;-84
2022/05/23 18:41:15;;;;;;;4.53;1.60;;;;;;;;;;6252978;28;20470;-84
2022/05/23 18:44:16;;;;;;;3.47;2.33;;;;;;;;;;6249849;28;20465;-83
2022/05/23 18:47:17;;;;;;;6.13;2.20;;;;;;;;;;6245350;28;20026;-84
2022/05/23 18:50:17;;;;;;;4.82;2.45;;;;;;;;;;6255457;28;20113;-82
2022/05/23 18:53:18;;;;;;;4.20;1.93;;;;;;;;;;6257494;28;20053;-84
2022/05/23 18:56:18;;;;;;;4.78;2.60;;;;;;;;;;6258476;28;20264;-84
2022/05/23 18:59:19;;;;;;;3.00;2.00;;;;;;;;;;6247514;28;20030;-84
2022/05/23 19:02:24;;;;;;;2.92;1.73;;;;;;;;;;6252782;28;20036;-88
2022/05/23 19:05:24;;;;;;;3.00;2.00;;;;;;;;;;6247438;28;20029;-83
2022/05/23 19:08:24;;;;;;;5.90;2.30;;;;;;;;;;6251435;28;20060;-85
2022/05/23 19:11:24;;;;;;;6.53;2.17;;;;;;;;;;6249791;28;20268;-84
2022/05/23 19:14:25;;;;;;;7.05;2.25;;;;;;;;;;6250519;28;20315;-82
2022/05/23 19:17:26;;;;;;;6.80;2.20;;;;;;;;;;6249214;28;20017;-84
2022/05/23 19:20:26;;;;;;;7.53;2.85;;;;;;;;;;6252687;28;20035;-84
2022/05/23 19:23:26;;;;;;;4.40;2.73;;;;;;;;;;6255991;28;20025;-84
2022/05/23 19:26:26;;;;;;;5.07;2.60;;;;;;;;;;6252043;28;20268;-84
2022/05/23 19:29:27;;;;;;;8.45;3.40;;;;;;;;;;6252484;28;20072;-84
2022/05/23 19:32:29;;;;;;;3.65;2.10;;;;;;;;;;6252917;28;20353;-83
2022/05/23 19:35:30;;;;;;;7.50;2.22;;;;;;;;;;6251580;28;20022;-83